• Join FlightAware (Why Join?)
  • Login
  • US Flag 
10:30PM EDT


 

Airport Tracker/Info


-or-


 

Live Flight TrackerFlight Track Log ✈ AAY841 ✈ 15-Jun-2014 ✈ KTRI - KPIE

Flight Track Log - Related Links

Times and Time Zones

All times are in EDT time to prevent confusion due to time zone crossing. See the AAY841 flight status page for this flight to view local times or setup timezone preferences in your user account.

Time Position Orientation Groundspeed Altitude Reporting Facility
EDT Latitude Longitude Course Direction KTS MPH feet Rate Location/Type
10:26AM 36.3858 -82.4475 173° South 213 245 5,000  Level Atlanta Center
10:27AM 36.3231 -82.4386 173° South 232 267 7,100 2,400 Climbing Atlanta Center
10:28AM 36.2436 -82.4247 172° South 274 315 9,900 2,400 Climbing Atlanta Center
10:29AM 36.1581 -82.4083 171° South 302 348 11,900 1,800 Climbing Atlanta Center
10:30AM 36.0556 -82.3897 172° South 351 404 13,500 1,920 Climbing Atlanta Center
10:31AM 35.9447 -82.3689 171° South 392 451 15,800 2,220 Climbing Atlanta Center
10:32AM 35.8300 -82.3739 182° South 411 473 18,000 1,920 Climbing Atlanta Center
10:33AM 35.7133 -82.3839 184° South 427 491 19,700 1,800 Climbing Atlanta Center
10:34AM 35.5903 -82.3864 181° South 433 498 21,600 1,800 Climbing Atlanta Center
10:35AM 35.4653 -82.3942 183° South 444 511 23,300 1,560 Climbing Atlanta Center
10:36AM 35.3358 -82.3992 182° South 450 518 24,800 1,380 Climbing Atlanta Center
10:37AM 35.2067 -82.4017 181° South 465 535 26,100 1,200 Climbing Atlanta Center
10:38AM 35.0836 -82.4042 181° South 476 548 27,200 1,620 Climbing Atlanta Center
10:39AM 34.9542 -82.4092 182° South 476 548 29,400 1,920 Climbing Atlanta Center
10:40AM 34.8269 -82.4117 181° South 470 541 31,100 1,320 Climbing Atlanta Center
10:41AM 34.6997 -82.4167 182° South 465 535 32,100 840 Climbing Atlanta Center
10:42AM 34.5747 -82.4217 182° South 459 528 32,800 720 Climbing Atlanta Center
10:43AM 34.4472 -82.4267 182° South 459 528 33,600 600 Climbing Atlanta Center
10:44AM 34.3075 -82.4319 182° South 459 528 34,000 180 Climbing Atlanta Center
10:45AM 34.1803 -82.4342 181° South 459 528 34,000  Level Atlanta Center
10:46AM 34.0656 -82.4389 182° South 464 534 34,000  Level Atlanta Center
10:47AM 33.9361 -82.4439 182° South 464 534 34,000  Level Atlanta Center
10:48AM 33.8047 -82.4464 181° South 464 534 34,000  Level Atlanta Center
10:49AM 33.6797 -82.4511 182° South 459 528 34,000  Level Atlanta Center
10:50AM 33.5503 -82.4561 182° South 461 531 34,000  Level Atlanta Center
10:51AM 33.4208 -82.4633 183° South 461 531 34,000  Level Atlanta Center
10:52AM 33.2936 -82.4656 181° South 461 531 34,000  Level Atlanta Center
10:53AM 33.1644 -82.4731 183° South 461 531 34,000  Level Atlanta Center
10:54AM 33.0372 -82.4803 183° South 461 531 34,000  Level Atlanta Center
10:56AM 32.7900 -82.4897 182° South 459 528 34,000  Level Jacksonville Center
10:57AM 32.6586 -82.4831 178° South 464 534 34,000  Level Jacksonville Center
10:58AM 32.5292 -82.4883 182° South 459 528 34,000  Level Jacksonville Center
10:59AM 32.3997 -82.4892 180° South 459 528 34,000  Level Jacksonville Center
11:00AM 32.2703 -82.4944 182° South 459 528 34,000  Level Jacksonville Center
11:01AM 32.1450 -82.5025 183° South 459 528 34,000  Level Jacksonville Center
11:02AM 32.0136 -82.5056 181° South 459 528 34,000  Level Jacksonville Center
11:03AM 31.8861 -82.5108 182° South 459 528 34,000  Level Jacksonville Center
11:04AM 31.7589 -82.5042 177° South 454 522 34,000  Level Jacksonville Center
11:05AM 31.6294 -82.4925 176° South 459 528 34,000  Level Jacksonville Center
11:06AM 31.4997 -82.4856 177° South 459 528 34,000 -60 Level Jacksonville Center
11:07AM 31.3600 -82.4789 178° South 464 534 33,900 -60 Descending Jacksonville Center
11:08AM 31.2325 -82.4697 176° South 459 528 33,900  Level Jacksonville Center
11:09AM 31.1031 -82.4631 177° South 459 528 33,900  Level Jacksonville Center
11:10AM 30.9736 -82.4539 177° South 464 534 34,000  Climbing Jacksonville Center
11:11AM 30.8442 -82.4450 177° South 464 534 34,000 -60 Level Jacksonville Center
11:12AM 30.7167 -82.4358 176° South 464 534 33,900  Descending Jacksonville Center
11:13AM 30.5914 -82.4292 177° South 464 534 34,000  Climbing Jacksonville Center
11:14AM 30.4597 -82.4203 177° South 464 534 34,000 -60 Level Jacksonville Center
11:15AM 30.3344 -82.4111 176° South 459 528 33,900  Descending Jacksonville Center
11:16AM 30.2092 -82.4022 176° South 459 528 34,000  Climbing Jacksonville Center
11:17AM 30.0839 -82.3933 176° South 459 528 33,900 -360 Descending Jacksonville Center
11:18AM 29.9689 -82.3819 175° South 459 528 33,300 -1,500 Descending Jacksonville Center
11:19AM 29.8394 -82.3731 177° South 464 534 30,900 -2,520 Descending Jacksonville Center
11:20AM 29.6933 -82.3642 177° South 470 541 28,300 -2,520 Descending Jacksonville Center
11:21AM 29.5575 -82.3531 176° South 482 555 26,000 -1,200 Descending Jacksonville Center
11:22AM 29.4303 -82.3394 175° South 475 547 26,000 -1,620 Level Jacksonville Center
11:23AM 29.3028 -82.3258 175° South 470 541 22,800 -3,000 Descending Jacksonville Center
11:24AM 29.1797 -82.3122 174° South 459 528 20,100 -2,700 Descending Jacksonville Center
11:25AM 29.0606 -82.2964 173° South 447 514 17,400 -2,640 Descending Jacksonville Center
11:26AM 28.9436 -82.2828 174° South 435 501 14,900 -2,280 Descending Jacksonville Center
11:27AM 28.8350 -82.2692 174° South 415 478 12,900 -780 Descending Jacksonville Center
11:29AM 28.6667 -82.2500 174° South 297 342 12,800 -360 Descending Tampa TRACON
11:31AM 28.4917 -82.2572 182° South 306 352 11,600 -600 Descending Miami Center
11:32AM 28.4667 -82.3500 253° West 282 325 11,100 -660 Descending Tampa TRACON
11:33AM 28.4500 -82.4167 254° West 290 334 10,500 -660 Descending Tampa TRACON
11:34AM 28.4333 -82.5167 259° West 292 336 9,900 -300 Descending Tampa TRACON
11:35AM 28.3833 -82.5833 230° Southwest 283 326 10,000 -300 Climbing Tampa TRACON
11:36AM 28.3333 -82.6667 236° Southwest 286 329 9,300 -840 Descending Tampa TRACON
11:37AM 28.2833 -82.7167 221° Southwest 289 333 8,400 -1,140 Descending Tampa TRACON
11:38AM 28.2000 -82.7333 190° South 280 322 7,100 -1,140 Descending Tampa TRACON
11:39AM 28.1333 -82.7500 192° South 224 258 6,100 -1,320 Descending Tampa TRACON
11:40AM 28.0667 -82.7500 180° South 213 245 4,500 -1,560 Descending Tampa TRACON
11:41AM 28.0167 -82.7500 180° South 215 247 3,200 -780 Descending Tampa TRACON
11:42AM 27.9500 -82.7333 168° South 208 239 3,000 -120 Descending Tampa TRACON
11:43AM 27.9000 -82.7333 180° South 198 228 3,000 -300 Level Tampa TRACON
11:44AM 27.8500 -82.7333 180° South 167 192 2,500 -780 Descending Tampa TRACON
11:45AM 27.8167 -82.7167 156° South 169 194 1,600 -720 Descending Tampa TRACON
11:46AM 27.8500 -82.6833 41° Northeast 156 180 1,100 -540 Descending Tampa TRACON
11:48AM 27.9211 -82.6878 357° North 158 182 200 -540 Descending Miami Center